sensor_id;sensor_type;location;lat;lon;timestamp;temperature;humidity
75899;DHT22;64576;50.460;4.866;2024-01-16T00:00:28;-0.40;97.14
75899;DHT22;64576;50.460;4.866;2024-01-16T00:02:55;-0.42;97.25
75899;DHT22;64576;50.460;4.866;2024-01-16T00:05:20;-0.42;97.17
75899;DHT22;64576;50.460;4.866;2024-01-16T00:07:50;-0.37;97.10
75899;DHT22;64576;50.460;4.866;2024-01-16T00:10:19;-0.41;97.26
75899;DHT22;64576;50.460;4.866;2024-01-16T00:12:45;-0.42;97.10
75899;DHT22;64576;50.460;4.866;2024-01-16T00:15:13;-0.40;97.10
75899;DHT22;64576;50.460;4.866;2024-01-16T00:17:44;-0.38;96.92
75899;DHT22;64576;50.460;4.866;2024-01-16T00:20:14;-0.35;96.80
75899;DHT22;64576;50.460;4.866;2024-01-16T00:22:41;-0.31;96.31
75899;DHT22;64576;50.460;4.866;2024-01-16T00:25:10;-0.30;96.12
75899;DHT22;64576;50.460;4.866;2024-01-16T00:27:37;-0.31;96.11
75899;DHT22;64576;50.460;4.866;2024-01-16T00:30:02;-0.34;96.28
75899;DHT22;64576;50.460;4.866;2024-01-16T00:32:29;-0.38;96.41
75899;DHT22;64576;50.460;4.866;2024-01-16T00:34:56;-0.37;96.44
75899;DHT22;64576;50.460;4.866;2024-01-16T00:37:22;-0.40;96.67
75899;DHT22;64576;50.460;4.866;2024-01-16T00:39:48;-0.42;96.82
75899;DHT22;64576;50.460;4.866;2024-01-16T00:42:18;-0.47;97.05
75899;DHT22;64576;50.460;4.866;2024-01-16T00:44:48;-0.50;96.92
75899;DHT22;64576;50.460;4.866;2024-01-16T00:47:16;-0.54;96.95
75899;DHT22;64576;50.460;4.866;2024-01-16T00:49:41;-0.60;97.35
75899;DHT22;64576;50.460;4.866;2024-01-16T00:52:12;-0.60;97.27
75899;DHT22;64576;50.460;4.866;2024-01-16T00:54:38;-0.65;97.14
75899;DHT22;64576;50.460;4.866;2024-01-16T00:57:05;-0.66;97.36
75899;DHT22;64576;50.460;4.866;2024-01-16T00:59:32;-0.85;97.89
75899;DHT22;64576;50.460;4.866;2024-01-16T01:02:00;-0.85;98.13
75899;DHT22;64576;50.460;4.866;2024-01-16T01:04:26;-0.92;98.24
75899;DHT22;64576;50.460;4.866;2024-01-16T01:06:53;-0.93;98.17
75899;DHT22;64576;50.460;4.866;2024-01-16T01:09:18;-0.99;98.35
75899;DHT22;64576;50.460;4.866;2024-01-16T01:11:44;-0.99;98.55
75899;DHT22;64576;50.460;4.866;2024-01-16T01:14:12;-0.97;98.25
75899;DHT22;64576;50.460;4.866;2024-01-16T01:16:38;-1.00;98.30
75899;DHT22;64576;50.460;4.866;2024-01-16T01:19:05;-1.11;98.52
75899;DHT22;64576;50.460;4.866;2024-01-16T01:21:31;-1.11;98.42
75899;DHT22;64576;50.460;4.866;2024-01-16T01:23:57;-1.20;98.53
75899;DHT22;64576;50.460;4.866;2024-01-16T01:26:24;-1.26;98.89
75899;DHT22;64576;50.460;4.866;2024-01-16T01:28:51;-1.33;99.11
75899;DHT22;64576;50.460;4.866;2024-01-16T01:31:17;-1.26;98.93
75899;DHT22;64576;50.460;4.866;2024-01-16T01:33:44;-1.26;98.88
75899;DHT22;64576;50.460;4.866;2024-01-16T01:36:10;-1.31;98.80
75899;DHT22;64576;50.460;4.866;2024-01-16T01:38:36;-1.36;99.09
75899;DHT22;64576;50.460;4.866;2024-01-16T01:41:03;-1.28;98.76
75899;DHT22;64576;50.460;4.866;2024-01-16T01:43:30;-1.33;98.75
75899;DHT22;64576;50.460;4.866;2024-01-16T01:46:08;-1.28;98.64
75899;DHT22;64576;50.460;4.866;2024-01-16T01:48:37;-1.27;98.27
75899;DHT22;64576;50.460;4.866;2024-01-16T01:51:06;-1.33;98.50
75899;DHT22;64576;50.460;4.866;2024-01-16T01:53:33;-1.38;98.49
75899;DHT22;64576;50.460;4.866;2024-01-16T01:56:03;-1.40;98.56
75899;DHT22;64576;50.460;4.866;2024-01-16T01:58:31;-1.40;98.58
75899;DHT22;64576;50.460;4.866;2024-01-16T02:00:57;-1.47;98.83
75899;DHT22;64576;50.460;4.866;2024-01-16T02:03:27;-1.55;99.08
75899;DHT22;64576;50.460;4.866;2024-01-16T02:05:56;-1.55;99.07
75899;DHT22;64576;50.460;4.866;2024-01-16T02:08:22;-1.50;98.81
75899;DHT22;64576;50.460;4.866;2024-01-16T02:10:49;-1.54;98.76
75899;DHT22;64576;50.460;4.866;2024-01-16T02:13:15;-1.59;98.98
75899;DHT22;64576;50.460;4.866;2024-01-16T02:15:46;-1.54;98.87
75899;DHT22;64576;50.460;4.866;2024-01-16T02:18:14;-1.54;98.69
75899;DHT22;64576;50.460;4.866;2024-01-16T02:20:39;-1.52;98.47
75899;DHT22;64576;50.460;4.866;2024-01-16T02:23:07;-1.54;98.53
75899;DHT22;64576;50.460;4.866;2024-01-16T02:25:33;-1.58;98.69
75899;DHT22;64576;50.460;4.866;2024-01-16T02:28:08;-1.64;98.82
75899;DHT22;64576;50.460;4.866;2024-01-16T02:30:33;-1.66;98.89
75899;DHT22;64576;50.460;4.866;2024-01-16T02:32:59;-1.61;98.58
75899;DHT22;64576;50.460;4.866;2024-01-16T02:35:25;-1.65;98.56
75899;DHT22;64576;50.460;4.866;2024-01-16T02:37:51;-1.64;98.52
75899;DHT22;64576;50.460;4.866;2024-01-16T02:40:17;-1.68;98.52
75899;DHT22;64576;50.460;4.866;2024-01-16T02:42:43;-1.74;98.57
75899;DHT22;64576;50.460;4.866;2024-01-16T02:45:09;-1.79;98.71
75899;DHT22;64576;50.460;4.866;2024-01-16T02:47:35;-1.76;98.51
75899;DHT22;64576;50.460;4.866;2024-01-16T02:50:00;-1.69;98.22
75899;DHT22;64576;50.460;4.866;2024-01-16T02:52:26;-1.79;98.31
75899;DHT22;64576;50.460;4.866;2024-01-16T02:54:52;-1.81;98.38
75899;DHT22;64576;50.460;4.866;2024-01-16T02:57:18;-1.83;98.40
75899;DHT22;64576;50.460;4.866;2024-01-16T02:59:44;-1.85;98.38
75899;DHT22;64576;50.460;4.866;2024-01-16T03:02:09;-1.86;98.42
75899;DHT22;64576;50.460;4.866;2024-01-16T03:04:36;-1.83;98.40
75899;DHT22;64576;50.460;4.866;2024-01-16T03:07:02;-1.83;98.23
75899;DHT22;64576;50.460;4.866;2024-01-16T03:09:29;-1.87;98.40
75899;DHT22;64576;50.460;4.866;2024-01-16T03:11:54;-1.72;97.80
75899;DHT22;64576;50.460;4.866;2024-01-16T03:14:21;-1.81;97.83
75899;DHT22;64576;50.460;4.866;2024-01-16T03:16:46;-1.82;98.01
75899;DHT22;64576;50.460;4.866;2024-01-16T03:19:12;-1.81;97.83
75899;DHT22;64576;50.460;4.866;2024-01-16T03:21:38;-1.87;97.94
75899;DHT22;64576;50.460;4.866;2024-01-16T03:24:04;-1.89;98.03
75899;DHT22;64576;50.460;4.866;2024-01-16T03:26:31;-1.94;98.02
75899;DHT22;64576;50.460;4.866;2024-01-16T03:28:56;-1.93;98.14
75899;DHT22;64576;50.460;4.866;2024-01-16T03:31:22;-2.00;98.45
75899;DHT22;64576;50.460;4.866;2024-01-16T03:33:47;-2.07;98.55
75899;DHT22;64576;50.460;4.866;2024-01-16T03:36:13;-2.10;98.64
75899;DHT22;64576;50.460;4.866;2024-01-16T03:38:39;-2.14;98.66
75899;DHT22;64576;50.460;4.866;2024-01-16T03:41:05;-2.14;98.80
75899;DHT22;64576;50.460;4.866;2024-01-16T03:43:35;-2.17;98.74
75899;DHT22;64576;50.460;4.866;2024-01-16T03:46:00;-2.13;98.66
75899;DHT22;64576;50.460;4.866;2024-01-16T03:48:27;-2.09;98.19
75899;DHT22;64576;50.460;4.866;2024-01-16T03:50:52;-2.11;98.37
75899;DHT22;64576;50.460;4.866;2024-01-16T03:53:21;-2.19;98.39
75899;DHT22;64576;50.460;4.866;2024-01-16T03:55:47;-2.23;98.63
75899;DHT22;64576;50.460;4.866;2024-01-16T03:58:13;-2.23;98.60
75899;DHT22;64576;50.460;4.866;2024-01-16T04:00:38;-2.26;98.57
75899;DHT22;64576;50.460;4.866;2024-01-16T04:03:04;-2.31;98.68
75899;DHT22;64576;50.460;4.866;2024-01-16T04:05:29;-2.36;98.98
75899;DHT22;64576;50.460;4.866;2024-01-16T04:07:56;-2.36;99.00
75899;DHT22;64576;50.460;4.866;2024-01-16T04:10:22;-2.41;99.09
75899;DHT22;64576;50.460;4.866;2024-01-16T04:12:48;-2.47;99.26
75899;DHT22;64576;50.460;4.866;2024-01-16T04:15:13;-2.48;99.56
75899;DHT22;64576;50.460;4.866;2024-01-16T04:17:42;-2.52;99.76
75899;DHT22;64576;50.460;4.866;2024-01-16T04:20:08;-2.59;99.99
75899;DHT22;64576;50.460;4.866;2024-01-16T04:22:34;-2.52;99.99
75899;DHT22;64576;50.460;4.866;2024-01-16T04:25:00;-2.58;99.99
75899;DHT22;64576;50.460;4.866;2024-01-16T04:27:25;-2.65;99.99
75899;DHT22;64576;50.460;4.866;2024-01-16T04:29:51;-2.75;99.99
75899;DHT22;64576;50.460;4.866;2024-01-16T04:32:17;-2.66;99.99
75899;DHT22;64576;50.460;4.866;2024-01-16T04:34:42;-2.52;99.49
75899;DHT22;64576;50.460;4.866;2024-01-16T04:37:07;-2.58;99.54
75899;DHT22;64576;50.460;4.866;2024-01-16T04:39:33;-2.59;99.29
75899;DHT22;64576;50.460;4.866;2024-01-16T04:41:58;-2.58;99.44
75899;DHT22;64576;50.460;4.866;2024-01-16T04:44:24;-2.69;99.99
75899;DHT22;64576;50.460;4.866;2024-01-16T04:46:49;-2.76;99.99
75899;DHT22;64576;50.460;4.866;2024-01-16T04:49:15;-2.78;99.99
75899;DHT22;64576;50.460;4.866;2024-01-16T04:51:40;-2.75;99.95
75899;DHT22;64576;50.460;4.866;2024-01-16T04:54:06;-2.80;99.99
75899;DHT22;64576;50.460;4.866;2024-01-16T04:56:31;-2.85;99.99
75899;DHT22;64576;50.460;4.866;2024-01-16T04:58:57;-2.99;99.99
75899;DHT22;64576;50.460;4.866;2024-01-16T05:01:22;-3.06;99.99
75899;DHT22;64576;50.460;4.866;2024-01-16T05:03:47;-2.99;99.99
75899;DHT22;64576;50.460;4.866;2024-01-16T05:06:14;-2.97;99.99
75899;DHT22;64576;50.460;4.866;2024-01-16T05:08:42;-3.03;99.99
75899;DHT22;64576;50.460;4.866;2024-01-16T05:11:08;-3.11;99.99
75899;DHT22;64576;50.460;4.866;2024-01-16T05:13:34;-3.23;99.99
75899;DHT22;64576;50.460;4.866;2024-01-16T05:15:59;-3.16;99.99
75899;DHT22;64576;50.460;4.866;2024-01-16T05:18:26;-3.18;99.99
75899;DHT22;64576;50.460;4.866;2024-01-16T05:20:52;-3.28;99.99
75899;DHT22;64576;50.460;4.866;2024-01-16T05:23:17;-3.27;99.99
75899;DHT22;64576;50.460;4.866;2024-01-16T05:25:43;-3.30;99.99
75899;DHT22;64576;50.460;4.866;2024-01-16T05:28:08;-3.41;99.99
75899;DHT22;64576;50.460;4.866;2024-01-16T05:30:34;-3.43;99.99
75899;DHT22;64576;50.460;4.866;2024-01-16T05:32:59;-3.43;99.99
75899;DHT22;64576;50.460;4.866;2024-01-16T05:35:29;-3.37;99.99
75899;DHT22;64576;50.460;4.866;2024-01-16T05:37:55;-3.37;99.99
75899;DHT22;64576;50.460;4.866;2024-01-16T05:40:21;-3.34;99.99
75899;DHT22;64576;50.460;4.866;2024-01-16T05:42:48;-3.43;99.99
75899;DHT22;64576;50.460;4.866;2024-01-16T05:45:14;-3.43;99.99
75899;DHT22;64576;50.460;4.866;2024-01-16T05:47:39;-3.24;99.99
75899;DHT22;64576;50.460;4.866;2024-01-16T05:50:06;-3.33;99.99
75899;DHT22;64576;50.460;4.866;2024-01-16T05:52:31;-3.31;99.99
75899;DHT22;64576;50.460;4.866;2024-01-16T05:54:57;-3.31;99.99
75899;DHT22;64576;50.460;4.866;2024-01-16T05:57:25;-3.25;99.99
75899;DHT22;64576;50.460;4.866;2024-01-16T05:59:50;-3.13;99.99
75899;DHT22;64576;50.460;4.866;2024-01-16T06:02:15;-3.00;99.99
75899;DHT22;64576;50.460;4.866;2024-01-16T06:04:41;-2.89;99.38
75899;DHT22;64576;50.460;4.866;2024-01-16T06:07:06;-2.85;99.11
75899;DHT22;64576;50.460;4.866;2024-01-16T06:09:33;-2.79;99.12
75899;DHT22;64576;50.460;4.866;2024-01-16T06:11:59;-2.69;98.19
75899;DHT22;64576;50.460;4.866;2024-01-16T06:14:24;-2.72;98.18
75899;DHT22;64576;50.460;4.866;2024-01-16T06:16:50;-2.66;97.91
75899;DHT22;64576;50.460;4.866;2024-01-16T06:19:16;-2.70;97.99
75899;DHT22;64576;50.460;4.866;2024-01-16T06:21:42;-2.72;98.09
75899;DHT22;64576;50.460;4.866;2024-01-16T06:24:07;-2.65;97.84
75899;DHT22;64576;50.460;4.866;2024-01-16T06:26:33;-2.70;97.80
75899;DHT22;64576;50.460;4.866;2024-01-16T06:28:58;-2.72;97.90
75899;DHT22;64576;50.460;4.866;2024-01-16T06:31:24;-2.69;97.55
75899;DHT22;64576;50.460;4.866;2024-01-16T06:33:51;-2.61;97.33
75899;DHT22;64576;50.460;4.866;2024-01-16T06:36:17;-2.51;96.72
75899;DHT22;64576;50.460;4.866;2024-01-16T06:38:42;-2.54;96.63
75899;DHT22;64576;50.460;4.866;2024-01-16T06:41:08;-2.57;96.88
75899;DHT22;64576;50.460;4.866;2024-01-16T06:43:33;-2.51;96.72
75899;DHT22;64576;50.460;4.866;2024-01-16T06:45:59;-2.51;96.56
75899;DHT22;64576;50.460;4.866;2024-01-16T06:48:25;-2.57;96.91
75899;DHT22;64576;50.460;4.866;2024-01-16T06:50:51;-2.52;96.65
75899;DHT22;64576;50.460;4.866;2024-01-16T06:53:17;-2.58;96.87
75899;DHT22;64576;50.460;4.866;2024-01-16T06:55:42;-2.66;97.43
75899;DHT22;64576;50.460;4.866;2024-01-16T06:58:08;-2.62;97.15
75899;DHT22;64576;50.460;4.866;2024-01-16T07:00:34;-2.66;97.26
75899;DHT22;64576;50.460;4.866;2024-01-16T07:03:00;-2.62;96.98
75899;DHT22;64576;50.460;4.866;2024-01-16T07:05:25;-2.57;96.75
75899;DHT22;64576;50.460;4.866;2024-01-16T07:07:51;-2.61;96.87
75899;DHT22;64576;50.460;4.866;2024-01-16T07:10:16;-2.58;96.83
75899;DHT22;64576;50.460;4.866;2024-01-16T07:12:47;-2.59;96.79
75899;DHT22;64576;50.460;4.866;2024-01-16T07:15:14;-2.65;97.16
75899;DHT22;64576;50.460;4.866;2024-01-16T07:17:40;-2.73;97.54
75899;DHT22;64576;50.460;4.866;2024-01-16T07:20:06;-2.68;97.47
75899;DHT22;64576;50.460;4.866;2024-01-16T07:22:32;-2.65;97.64
75899;DHT22;64576;50.460;4.866;2024-01-16T07:24:59;-2.69;97.70
75899;DHT22;64576;50.460;4.866;2024-01-16T07:27:24;-2.72;97.32
75899;DHT22;64576;50.460;4.866;2024-01-16T07:29:50;-2.80;97.68
75899;DHT22;64576;50.460;4.866;2024-01-16T07:32:15;-2.79;97.83
75899;DHT22;64576;50.460;4.866;2024-01-16T07:34:41;-2.78;98.08
75899;DHT22;64576;50.460;4.866;2024-01-16T07:37:06;-2.80;98.04
75899;DHT22;64576;50.460;4.866;2024-01-16T07:39:32;-2.79;97.85
75899;DHT22;64576;50.460;4.866;2024-01-16T07:41:58;-2.83;97.98
75899;DHT22;64576;50.460;4.866;2024-01-16T07:44:24;-2.76;97.83
75899;DHT22;64576;50.460;4.866;2024-01-16T07:46:50;-2.73;97.75
75899;DHT22;64576;50.460;4.866;2024-01-16T07:49:15;-2.73;97.97
75899;DHT22;64576;50.460;4.866;2024-01-16T07:51:41;-2.80;98.47
75899;DHT22;64576;50.460;4.866;2024-01-16T07:54:08;-2.72;97.64
75899;DHT22;64576;50.460;4.866;2024-01-16T07:56:35;-2.76;98.02
75899;DHT22;64576;50.460;4.866;2024-01-16T07:59:07;-2.72;98.58
75899;DHT22;64576;50.460;4.866;2024-01-16T08:01:34;-2.86;98.95
75899;DHT22;64576;50.460;4.866;2024-01-16T08:04:00;-2.97;99.27
75899;DHT22;64576;50.460;4.866;2024-01-16T08:06:26;-2.92;98.76
75899;DHT22;64576;50.460;4.866;2024-01-16T08:08:51;-2.88;98.91
75899;DHT22;64576;50.460;4.866;2024-01-16T08:11:18;-2.97;99.72
75899;DHT22;64576;50.460;4.866;2024-01-16T08:13:43;-2.86;98.89
75899;DHT22;64576;50.460;4.866;2024-01-16T08:16:09;-2.90;98.62
75899;DHT22;64576;50.460;4.866;2024-01-16T08:18:34;-2.83;98.25
75899;DHT22;64576;50.460;4.866;2024-01-16T08:21:00;-2.76;98.36
75899;DHT22;64576;50.460;4.866;2024-01-16T08:23:25;-2.70;97.63
75899;DHT22;64576;50.460;4.866;2024-01-16T08:25:51;-2.54;96.87
75899;DHT22;64576;50.460;4.866;2024-01-16T08:28:20;-2.40;96.89
75899;DHT22;64576;50.460;4.866;2024-01-16T08:31:01;-2.21;96.39
75899;DHT22;64576;50.460;4.866;2024-01-16T08:33:27;-2.10;96.32
75899;DHT22;64576;50.460;4.866;2024-01-16T08:35:52;-2.02;96.03
75899;DHT22;64576;50.460;4.866;2024-01-16T08:38:17;-1.90;95.77
75899;DHT22;64576;50.460;4.866;2024-01-16T08:40:43;-1.85;94.83
75899;DHT22;64576;50.460;4.866;2024-01-16T08:43:08;-1.51;93.67
75899;DHT22;64576;50.460;4.866;2024-01-16T08:45:34;-1.24;92.68
75899;DHT22;64576;50.460;4.866;2024-01-16T08:47:59;-0.95;92.10
75899;DHT22;64576;50.460;4.866;2024-01-16T08:50:25;-0.72;91.54
75899;DHT22;64576;50.460;4.866;2024-01-16T08:52:50;-0.72;90.96
75899;DHT22;64576;50.460;4.866;2024-01-16T08:55:15;-0.81;90.67
75899;DHT22;64576;50.460;4.866;2024-01-16T08:57:41;-0.79;89.80
75899;DHT22;64576;50.460;4.866;2024-01-16T09:00:07;-0.55;89.41
75899;DHT22;64576;50.460;4.866;2024-01-16T09:02:37;-0.65;89.59
75899;DHT22;64576;50.460;4.866;2024-01-16T09:05:03;-0.99;89.90
75899;DHT22;64576;50.460;4.866;2024-01-16T09:07:30;-1.11;91.34
75899;DHT22;64576;50.460;4.866;2024-01-16T09:09:55;-1.13;92.33
75899;DHT22;64576;50.460;4.866;2024-01-16T09:12:20;-1.13;91.85
75899;DHT22;64576;50.460;4.866;2024-01-16T09:14:46;-0.83;90.67
75899;DHT22;64576;50.460;4.866;2024-01-16T09:17:11;-0.61;90.25
75899;DHT22;64576;50.460;4.866;2024-01-16T09:19:37;-0.68;89.40
75899;DHT22;64576;50.460;4.866;2024-01-16T09:22:03;-0.83;89.89
75899;DHT22;64576;50.460;4.866;2024-01-16T09:24:29;-0.83;90.85
75899;DHT22;64576;50.460;4.866;2024-01-16T09:26:54;-0.73;90.40
75899;DHT22;64576;50.460;4.866;2024-01-16T09:29:20;-0.69;89.97
75899;DHT22;64576;50.460;4.866;2024-01-16T09:31:46;-0.82;90.33
75899;DHT22;64576;50.460;4.866;2024-01-16T09:34:12;-0.66;90.31
75899;DHT22;64576;50.460;4.866;2024-01-16T09:36:39;-0.34;89.03
75899;DHT22;64576;50.460;4.866;2024-01-16T09:39:05;-0.26;88.85
75899;DHT22;64576;50.460;4.866;2024-01-16T09:41:37;-0.27;89.01
75899;DHT22;64576;50.460;4.866;2024-01-16T09:44:03;-0.41;90.54
75899;DHT22;64576;50.460;4.866;2024-01-16T09:46:30;-0.50;90.33
75899;DHT22;64576;50.460;4.866;2024-01-16T09:48:56;-0.62;89.63
75899;DHT22;64576;50.460;4.866;2024-01-16T09:51:22;-0.50;89.49
75899;DHT22;64576;50.460;4.866;2024-01-16T09:53:48;-0.23;89.39
75899;DHT22;64576;50.460;4.866;2024-01-16T09:56:20;-0.13;88.74
75899;DHT22;64576;50.460;4.866;2024-01-16T09:58:48;-0.05;89.10
75899;DHT22;64576;50.460;4.866;2024-01-16T10:01:16;0.38;89.05
75899;DHT22;64576;50.460;4.866;2024-01-16T10:03:45;0.80;87.18
75899;DHT22;64576;50.460;4.866;2024-01-16T10:06:11;1.36;85.16
75899;DHT22;64576;50.460;4.866;2024-01-16T10:08:37;1.67;84.57
75899;DHT22;64576;50.460;4.866;2024-01-16T10:11:03;1.48;84.19
75899;DHT22;64576;50.460;4.866;2024-01-16T10:13:29;2.00;84.86
75899;DHT22;64576;50.460;4.866;2024-01-16T10:15:55;1.53;83.18
75899;DHT22;64576;50.460;4.866;2024-01-16T10:18:28;1.08;84.28
75899;DHT22;64576;50.460;4.866;2024-01-16T10:20:57;1.62;84.17
75899;DHT22;64576;50.460;4.866;2024-01-16T10:23:24;1.77;81.95
75899;DHT22;64576;50.460;4.866;2024-01-16T10:26:05;3.56;78.35
75899;DHT22;64576;50.460;4.866;2024-01-16T10:28:32;3.25;77.25
75899;DHT22;64576;50.460;4.866;2024-01-16T10:31:08;3.90;76.36
75899;DHT22;64576;50.460;4.866;2024-01-16T10:33:35;4.35;74.54
75899;DHT22;64576;50.460;4.866;2024-01-16T10:36:11;4.73;73.21
75899;DHT22;64576;50.460;4.866;2024-01-16T10:38:40;4.62;73.07
75899;DHT22;64576;50.460;4.866;2024-01-16T10:41:14;3.32;75.65
75899;DHT22;64576;50.460;4.866;2024-01-16T10:43:45;3.80;75.56
75899;DHT22;64576;50.460;4.866;2024-01-16T10:48:38;4.32;74.53
75899;DHT22;64576;50.460;4.866;2024-01-16T10:51:14;4.69;72.07
75899;DHT22;64576;50.460;4.866;2024-01-16T10:54:06;4.10;74.16
75899;DHT22;64576;50.460;4.866;2024-01-16T10:56:47;5.67;69.89
75899;DHT22;64576;50.460;4.866;2024-01-16T11:00:02;4.79;70.11
75899;DHT22;64576;50.460;4.866;2024-01-16T11:03:16;5.35;69.64
75899;DHT22;64576;50.460;4.866;2024-01-16T11:05:22;4.90;69.23
75899;DHT22;64576;50.460;4.866;2024-01-16T11:07:55;4.00;72.08
75899;DHT22;64576;50.460;4.866;2024-01-16T11:10:24;3.72;73.74
75899;DHT22;64576;50.460;4.866;2024-01-16T11:12:54;3.54;75.34
75899;DHT22;64576;50.460;4.866;2024-01-16T11:15:24;4.40;73.46
75899;DHT22;64576;50.460;4.866;2024-01-16T11:17:52;4.41;72.85
75899;DHT22;64576;50.460;4.866;2024-01-16T11:20:20;3.98;71.55
75899;DHT22;64576;50.460;4.866;2024-01-16T11:22:47;3.97;74.15
75899;DHT22;64576;50.460;4.866;2024-01-16T11:25:19;4.44;72.72
75899;DHT22;64576;50.460;4.866;2024-01-16T11:27:46;4.56;72.79
75899;DHT22;64576;50.460;4.866;2024-01-16T11:30:29;4.31;72.94
75899;DHT22;64576;50.460;4.866;2024-01-16T11:32:55;4.52;72.48
75899;DHT22;64576;50.460;4.866;2024-01-16T11:35:35;4.69;71.84
75899;DHT22;64576;50.460;4.866;2024-01-16T11:38:06;4.89;72.00
75899;DHT22;64576;50.460;4.866;2024-01-16T11:40:33;5.54;70.32
75899;DHT22;64576;50.460;4.866;2024-01-16T11:43:35;5.44;70.92
75899;DHT22;64576;50.460;4.866;2024-01-16T11:46:06;5.77;68.50
75899;DHT22;64576;50.460;4.866;2024-01-16T11:48:35;5.62;67.64
75899;DHT22;64576;50.460;4.866;2024-01-16T11:51:22;5.80;68.93
75899;DHT22;64576;50.460;4.866;2024-01-16T11:53:48;5.52;67.36
75899;DHT22;64576;50.460;4.866;2024-01-16T12:01:11;4.69;72.00
75899;DHT22;64576;50.460;4.866;2024-01-16T12:03:38;5.27;68.80
75899;DHT22;64576;50.460;4.866;2024-01-16T12:06:04;5.18;69.29
75899;DHT22;64576;50.460;4.866;2024-01-16T12:08:31;4.66;69.44
75899;DHT22;64576;50.460;4.866;2024-01-16T12:10:57;3.35;71.51
75899;DHT22;64576;50.460;4.866;2024-01-16T12:13:23;3.41;74.62
75899;DHT22;64576;50.460;4.866;2024-01-16T12:15:48;3.82;71.71
75899;DHT22;64576;50.460;4.866;2024-01-16T12:18:23;2.82;74.25
75899;DHT22;64576;50.460;4.866;2024-01-16T12:20:49;1.86;78.12
75899;DHT22;64576;50.460;4.866;2024-01-16T12:23:14;1.56;78.94
75899;DHT22;64576;50.460;4.866;2024-01-16T12:25:41;4.38;73.95
75899;DHT22;64576;50.460;4.866;2024-01-16T12:28:08;4.83;70.45
75899;DHT22;64576;50.460;4.866;2024-01-16T12:30:37;2.79;75.74
75899;DHT22;64576;50.460;4.866;2024-01-16T12:33:09;2.76;75.57
75899;DHT22;64576;50.460;4.866;2024-01-16T12:35:36;1.45;79.50
75899;DHT22;64576;50.460;4.866;2024-01-16T12:38:04;2.76;78.82
75899;DHT22;64576;50.460;4.866;2024-01-16T12:40:47;4.10;72.39
75899;DHT22;64576;50.460;4.866;2024-01-16T12:43:16;4.27;71.86
75899;DHT22;64576;50.460;4.866;2024-01-16T12:45:42;5.49;69.51
75899;DHT22;64576;50.460;4.866;2024-01-16T12:48:10;5.54;68.14
75899;DHT22;64576;50.460;4.866;2024-01-16T12:50:35;6.71;66.76
75899;DHT22;64576;50.460;4.866;2024-01-16T12:53:05;5.28;67.76
75899;DHT22;64576;50.460;4.866;2024-01-16T12:55:34;5.42;69.05
75899;DHT22;64576;50.460;4.866;2024-01-16T12:58:21;5.41;67.21
75899;DHT22;64576;50.460;4.866;2024-01-16T13:00:50;6.48;65.27
75899;DHT22;64576;50.460;4.866;2024-01-16T13:03:21;7.25;64.47
75899;DHT22;64576;50.460;4.866;2024-01-16T13:05:55;6.37;65.26
75899;DHT22;64576;50.460;4.866;2024-01-16T13:08:21;5.83;66.50
75899;DHT22;64576;50.460;4.866;2024-01-16T13:11:05;5.99;65.85
75899;DHT22;64576;50.460;4.866;2024-01-16T13:13:30;3.48;71.33
75899;DHT22;64576;50.460;4.866;2024-01-16T13:15:58;4.53;70.25
75899;DHT22;64576;50.460;4.866;2024-01-16T13:18:26;5.79;67.88
75899;DHT22;64576;50.460;4.866;2024-01-16T13:20:53;6.45;65.03
75899;DHT22;64576;50.460;4.866;2024-01-16T13:23:22;5.06;68.16
75899;DHT22;64576;50.460;4.866;2024-01-16T13:25:49;5.65;67.82
75899;DHT22;64576;50.460;4.866;2024-01-16T13:28:16;5.65;67.04
75899;DHT22;64576;50.460;4.866;2024-01-16T13:30:42;5.16;67.81
75899;DHT22;64576;50.460;4.866;2024-01-16T13:33:08;5.38;67.28
75899;DHT22;64576;50.460;4.866;2024-01-16T13:35:35;5.51;67.03
75899;DHT22;64576;50.460;4.866;2024-01-16T13:38:01;6.07;65.83
75899;DHT22;64576;50.460;4.866;2024-01-16T13:40:29;7.01;64.15
75899;DHT22;64576;50.460;4.866;2024-01-16T13:42:54;7.00;63.29
75899;DHT22;64576;50.460;4.866;2024-01-16T13:45:20;7.14;64.03
75899;DHT22;64576;50.460;4.866;2024-01-16T13:47:45;6.53;64.99
75899;DHT22;64576;50.460;4.866;2024-01-16T13:50:11;5.39;66.07
75899;DHT22;64576;50.460;4.866;2024-01-16T13:52:38;4.46;69.98
75899;DHT22;64576;50.460;4.866;2024-01-16T13:55:05;4.75;70.83
75899;DHT22;64576;50.460;4.866;2024-01-16T13:57:31;6.10;66.63
75899;DHT22;64576;50.460;4.866;2024-01-16T14:00:00;5.66;66.99
75899;DHT22;64576;50.460;4.866;2024-01-16T14:02:26;6.44;64.69
75899;DHT22;64576;50.460;4.866;2024-01-16T14:04:52;5.65;65.71
75899;DHT22;64576;50.460;4.866;2024-01-16T14:07:17;5.34;66.09
75899;DHT22;64576;50.460;4.866;2024-01-16T14:09:43;4.41;67.66
75899;DHT22;64576;50.460;4.866;2024-01-16T14:12:10;3.90;69.35
75899;DHT22;64576;50.460;4.866;2024-01-16T14:14:41;3.51;71.08
75899;DHT22;64576;50.460;4.866;2024-01-16T14:24:57;6.69;61.27
75899;DHT22;64576;50.460;4.866;2024-01-16T14:31:20;6.49;61.89
75899;DHT22;64576;50.460;4.866;2024-01-16T14:34:12;5.13;64.46
75899;DHT22;64576;50.460;4.866;2024-01-16T14:36:44;4.13;69.58
75899;DHT22;64576;50.460;4.866;2024-01-16T14:39:23;5.16;66.33
75899;DHT22;64576;50.460;4.866;2024-01-16T14:41:50;6.42;63.76
75899;DHT22;64576;50.460;4.866;2024-01-16T14:44:28;5.93;62.47
75899;DHT22;64576;50.460;4.866;2024-01-16T14:47:02;6.16;63.73
75899;DHT22;64576;50.460;4.866;2024-01-16T14:49:41;5.38;65.20
75899;DHT22;64576;50.460;4.866;2024-01-16T14:52:19;6.06;63.04
75899;DHT22;64576;50.460;4.866;2024-01-16T14:54:44;6.62;62.33
75899;DHT22;64576;50.460;4.866;2024-01-16T14:57:19;5.70;62.73
75899;DHT22;64576;50.460;4.866;2024-01-16T15:00:01;5.45;64.19
75899;DHT22;64576;50.460;4.866;2024-01-16T15:02:27;4.42;66.80
75899;DHT22;64576;50.460;4.866;2024-01-16T15:04:53;5.14;65.71
75899;DHT22;64576;50.460;4.866;2024-01-16T15:07:19;5.92;63.84
75899;DHT22;64576;50.460;4.866;2024-01-16T15:10:21;4.75;65.37
75899;DHT22;64576;50.460;4.866;2024-01-16T15:13:08;3.91;67.20
75899;DHT22;64576;50.460;4.866;2024-01-16T15:15:34;3.11;69.61
75899;DHT22;64576;50.460;4.866;2024-01-16T15:18:01;1.49;74.45
75899;DHT22;64576;50.460;4.866;2024-01-16T15:20:27;1.09;76.55
75899;DHT22;64576;50.460;4.866;2024-01-16T15:22:56;0.76;78.10
75899;DHT22;64576;50.460;4.866;2024-01-16T15:25:25;0.66;78.60
75899;DHT22;64576;50.460;4.866;2024-01-16T15:27:52;0.62;79.24
75899;DHT22;64576;50.460;4.866;2024-01-16T15:30:28;0.52;79.42
75899;DHT22;64576;50.460;4.866;2024-01-16T15:33:21;0.44;79.76
75899;DHT22;64576;50.460;4.866;2024-01-16T15:35:50;0.29;80.34
75899;DHT22;64576;50.460;4.866;2024-01-16T15:38:36;0.15;80.93
75899;DHT22;64576;50.460;4.866;2024-01-16T15:41:04;0.25;80.69
75899;DHT22;64576;50.460;4.866;2024-01-16T15:43:43;0.12;81.18
75899;DHT22;64576;50.460;4.866;2024-01-16T15:46:22;-0.02;81.89
75899;DHT22;64576;50.460;4.866;2024-01-16T15:48:50;-0.03;82.01
75899;DHT22;64576;50.460;4.866;2024-01-16T15:51:17;-0.10;81.77
75899;DHT22;64576;50.460;4.866;2024-01-16T15:53:56;-0.13;81.90
75899;DHT22;64576;50.460;4.866;2024-01-16T15:56:25;-0.13;82.45
75899;DHT22;64576;50.460;4.866;2024-01-16T15:58:59;-0.24;83.00